Hozan Maru — JJ4010 — position and weather

sailwx.info

Track history (hours):
 
Tides and Currents Weather Stations Pressure Air Temp Water Temp Dewpoint Dewpoint Depression Visibility Wind Speed Wind Dir Waves Ship Positions

Hozan Maru

Last reported at 2014-Nov-22 21:33 UTC. Time now 2014-Nov-23 07:26 UTC.
Position N 34°40' E 134°49'.

Length 38 m; draft 3.6 m.

Type: Tug. MMSI: 431401501.

Date/timePositionNaut miles runAvg speedWind from/ knotsBaromVisibWave heightAir tempDewpointWater temp
2014-Nov-22 21:33N 34°40' E 134°49'5 0.4
2014-Nov-22 07:06N 34°38' E 134°54'711.7
2014-Nov-22 06:33N 34°38' E 135°02'1212.5
2014-Nov-22 05:33N 34°38' E 135°17'8 7.8
2014-Nov-22 04:33N 34°38' E 135°27'2 2.4
2014-Nov-22 03:33N 34°38' E 135°24'2 2.4
2014-Nov-22 02:33N 34°36' E 135°24'4 3.5
2014-Nov-22 01:32N 34°33' E 135°25'2 1.6
2014-Nov-22 00:33N 34°33' E 135°24'4 3.8
2014-Nov-21 23:33N 34°37' E 135°23'5 0.2
2014-Nov-21 02:23N 34°40' E 135°27'2 2.4
2014-Nov-21 01:33N 34°39' E 135°25'2 1.6
2014-Nov-21 00:33N 34°38' E 135°24'4 3.5
2014-Nov-20 23:31N 34°40' E 135°27'1 0.0
2014-Nov-20 12:31N 34°40' E 135°27'3 3.0
2014-Nov-20 11:33N 34°38' E 135°24'1 0.6
2014-Nov-20 10:33N 34°38' E 135°25'0 0.0
2014-Nov-20 09:33N 34°38' E 135°25'0 0.0
2014-Nov-20 08:33N 34°38' E 135°25'0 0.0
2014-Nov-20 07:33N 34°38' E 135°25'0 0.0
2014-Nov-20 06:33N 34°38' E 135°25'0 0.0
2014-Nov-20 05:33N 34°38' E 135°25'0 0.0
2014-Nov-20 04:33N 34°38' E 135°25'0 0.0
2014-Nov-20 03:33N 34°38' E 135°25'2 2.2
2014-Nov-20 02:31N 34°39' E 135°27'4 3.9
2014-Nov-20 01:33N 34°37' E 135°24'1 0.6
2014-Nov-20 00:33N 34°36' E 135°24'1 0.9
2014-Nov-19 23:33N 34°37' E 135°24'3 2.5
2014-Nov-19 22:33N 34°39' E 135°26'0 0.3
2014-Nov-19 21:33N 34°39' E 135°27'2 0.2
2014-Nov-19 08:33N 34°39' E 135°24'1 0.7
2014-Nov-19 07:33N 34°38' E 135°24'2 2.2
2014-Nov-19 06:34N 34°39' E 135°26'0 0.0
2014-Nov-19 05:33N 34°39' E 135°26'0 0.2
2014-Nov-19 04:33N 34°39' E 135°26'6 6.0
2014-Nov-19 03:32N 34°33' E 135°26'2 2.3
2014-Nov-19 02:32N 34°35' E 135°24'1 1.0
2014-Nov-19 01:33N 34°36' E 135°24'0 0.0
2014-Nov-19 00:34N 34°36' E 135°24'0 0.0
2014-Nov-18 23:33N 34°36' E 135°24'4 3.6
2014-Nov-18 22:33N 34°33' E 135°25'8 7.9
2014-Nov-18 21:33N 34°40' E 135°27'3 0.3
2014-Nov-18 08:34N 34°38' E 135°24'2 1.6
2014-Nov-18 07:34N 34°37' E 135°24'4 3.1
2014-Nov-18 06:24N 34°33' E 135°25'5 5.2
2014-Nov-18 05:32N 34°34' E 135°20'1 0.8
2014-Nov-18 04:33N 34°34' E 135°19'5 4.4
2014-Nov-18 03:30N 34°33' E 135°24'1 1.3
2014-Nov-18 02:32N 34°33' E 135°26'1 0.6
2014-Nov-18 01:32N 34°33' E 135°27'1 1.2
2014-Nov-18 00:33N 34°33' E 135°25'3 2.8
2014-Nov-17 23:33N 34°34' E 135°22'7 6.7
2014-Nov-17 22:33N 34°40' E 135°26'1 0.1
2014-Nov-17 08:09N 34°40' E 135°27'2 3.5
2014-Nov-17 07:33N 34°39' E 135°26'1 0.9
2014-Nov-17 06:33N 34°39' E 135°26'0 0.0
2014-Nov-17 05:32N 34°39' E 135°26'0 0.0
2014-Nov-17 04:33N 34°39' E 135°26'0 0.0
2014-Nov-17 03:33N 34°39' E 135°26'0 0.0
2014-Nov-17 02:34N 34°39' E 135°26'4 4.1
2014-Nov-17 01:31N 34°38' E 135°21'4 4.5
2014-Nov-17 00:32N 34°34' E 135°20'4 4.5
2014-Nov-16 23:32N 34°29' E 135°21'1 1.5
2014-Nov-16 22:33N 34°28' E 135°21'10 9.7
2014-Nov-16 21:33N 34°38' E 135°23'3 0.1
2014-Nov-15 02:08N 34°40' E 135°26'610.0
2014-Nov-15 01:33N 34°34' E 135°24'2 1.9
2014-Nov-15 00:29N 34°33' E 135°25'3 3.2
2014-Nov-14 23:31N 34°33' E 135°21'4 4.0
2014-Nov-14 22:33N 34°37' E 135°23'2 0.2
2014-Nov-14 09:33N 34°38' E 135°20'1312.8
2014-Nov-14 08:33N 34°35' E 135°05'1413.1
2014-Nov-14 07:28N 34°40' E 134°49'1 0.0
2014-Nov-13 01:06N 34°41' E 134°50'2 3.0
2014-Nov-13 00:20N 34°40' E 134°47'  
Track history (hours):
 
Tides and Currents Weather Stations Pressure Air Temp Water Temp Dewpoint Dewpoint Depression Visibility Wind Speed Wind Dir Waves Ship Positions

Hozan Maru

Last reported at 2014-Nov-22 21:33 UTC. Time now 2014-Nov-23 07:26 UTC.
Position N 34°40' E 134°49'.

Length 38 m; draft 3.6 m.

Type: Tug. MMSI: 431401501.

Date/timePositionNaut miles runAvg speedWind from/ knotsBaromVisibWave heightAir tempDewpointWater temp
2014-Nov-22 21:33N 34°40' E 134°49'5 0.4
2014-Nov-22 07:06N 34°38' E 134°54'711.7
2014-Nov-22 06:33N 34°38' E 135°02'1212.5
2014-Nov-22 05:33N 34°38' E 135°17'8 7.8
2014-Nov-22 04:33N 34°38' E 135°27'2 2.4
2014-Nov-22 03:33N 34°38' E 135°24'2 2.4
2014-Nov-22 02:33N 34°36' E 135°24'4 3.5
2014-Nov-22 01:32N 34°33' E 135°25'2 1.6
2014-Nov-22 00:33N 34°33' E 135°24'4 3.8
2014-Nov-21 23:33N 34°37' E 135°23'5 0.2
2014-Nov-21 02:23N 34°40' E 135°27'2 2.4
2014-Nov-21 01:33N 34°39' E 135°25'2 1.6
2014-Nov-21 00:33N 34°38' E 135°24'4 3.5
2014-Nov-20 23:31N 34°40' E 135°27'1 0.0
2014-Nov-20 12:31N 34°40' E 135°27'3 3.0
2014-Nov-20 11:33N 34°38' E 135°24'1 0.6
2014-Nov-20 10:33N 34°38' E 135°25'0 0.0
2014-Nov-20 09:33N 34°38' E 135°25'0 0.0
2014-Nov-20 08:33N 34°38' E 135°25'0 0.0
2014-Nov-20 07:33N 34°38' E 135°25'0 0.0
2014-Nov-20 06:33N 34°38' E 135°25'0 0.0
2014-Nov-20 05:33N 34°38' E 135°25'0 0.0
2014-Nov-20 04:33N 34°38' E 135°25'0 0.0
2014-Nov-20 03:33N 34°38' E 135°25'2 2.2
2014-Nov-20 02:31N 34°39' E 135°27'4 3.9
2014-Nov-20 01:33N 34°37' E 135°24'1 0.6
2014-Nov-20 00:33N 34°36' E 135°24'1 0.9
2014-Nov-19 23:33N 34°37' E 135°24'3 2.5
2014-Nov-19 22:33N 34°39' E 135°26'0 0.3
2014-Nov-19 21:33N 34°39' E 135°27'2 0.2
2014-Nov-19 08:33N 34°39' E 135°24'1 0.7
2014-Nov-19 07:33N 34°38' E 135°24'2 2.2
2014-Nov-19 06:34N 34°39' E 135°26'0 0.0
2014-Nov-19 05:33N 34°39' E 135°26'0 0.2
2014-Nov-19 04:33N 34°39' E 135°26'6 6.0
2014-Nov-19 03:32N 34°33' E 135°26'2 2.3
2014-Nov-19 02:32N 34°35' E 135°24'1 1.0
2014-Nov-19 01:33N 34°36' E 135°24'0 0.0
2014-Nov-19 00:34N 34°36' E 135°24'0 0.0
2014-Nov-18 23:33N 34°36' E 135°24'4 3.6
2014-Nov-18 22:33N 34°33' E 135°25'8 7.9
2014-Nov-18 21:33N 34°40' E 135°27'3 0.3
2014-Nov-18 08:34N 34°38' E 135°24'2 1.6
2014-Nov-18 07:34N 34°37' E 135°24'4 3.1
2014-Nov-18 06:24N 34°33' E 135°25'5 5.2
2014-Nov-18 05:32N 34°34' E 135°20'1 0.8
2014-Nov-18 04:33N 34°34' E 135°19'5 4.4
2014-Nov-18 03:30N 34°33' E 135°24'1 1.3
2014-Nov-18 02:32N 34°33' E 135°26'1 0.6
2014-Nov-18 01:32N 34°33' E 135°27'1 1.2
2014-Nov-18 00:33N 34°33' E 135°25'3 2.8
2014-Nov-17 23:33N 34°34' E 135°22'7 6.7
2014-Nov-17 22:33N 34°40' E 135°26'1 0.1
2014-Nov-17 08:09N 34°40' E 135°27'2 3.5
2014-Nov-17 07:33N 34°39' E 135°26'1 0.9
2014-Nov-17 06:33N 34°39' E 135°26'0 0.0
2014-Nov-17 05:32N 34°39' E 135°26'0 0.0
2014-Nov-17 04:33N 34°39' E 135°26'0 0.0
2014-Nov-17 03:33N 34°39' E 135°26'0 0.0
2014-Nov-17 02:34N 34°39' E 135°26'4 4.1
2014-Nov-17 01:31N 34°38' E 135°21'4 4.5
2014-Nov-17 00:32N 34°34' E 135°20'4 4.5
2014-Nov-16 23:32N 34°29' E 135°21'1 1.5
2014-Nov-16 22:33N 34°28' E 135°21'10 9.7
2014-Nov-16 21:33N 34°38' E 135°23'3 0.1
2014-Nov-15 02:08N 34°40' E 135°26'610.0
2014-Nov-15 01:33N 34°34' E 135°24'2 1.9
2014-Nov-15 00:29N 34°33' E 135°25'3 3.2
2014-Nov-14 23:31N 34°33' E 135°21'4 4.0
2014-Nov-14 22:33N 34°37' E 135°23'2 0.2
2014-Nov-14 09:33N 34°38' E 135°20'1312.8
2014-Nov-14 08:33N 34°35' E 135°05'1413.1
2014-Nov-14 07:28N 34°40' E 134°49'1 0.0
2014-Nov-13 01:06N 34°41' E 134°50'2 3.0
2014-Nov-13 00:20N 34°40' E 134°47'  

Dump ship's entire track history